Time;durP1;ratioP1;P1;durP2;ratioP2;P2;SDS_P1;SDS_P2;PMS_P1;PMS_P2;Temp;Humidity;BMP_temperature;BMP_pressure;BME280_temperature;BME280_humidity;BME280_pressure;Samples;Min_cycle;Max_cycle;Signal;HPM_P1;HPM_P2
2021/01/25 19:58:20;;;;;;;79.18;71.57;;;;;;;;;;5112039;27;20696;-47
2021/01/25 20:00:47;;;;;;;83.50;75.80;;;;;;;;;;5111564;28;20399;-48
2021/01/25 20:03:13;;;;;;;79.22;71.82;;;;;;;;;;5111236;28;20051;-47
2021/01/25 20:05:39;;;;;;;90.53;82.55;;;;;;;;;;5111466;28;20479;-47
2021/01/25 20:08:05;;;;;;;91.85;83.65;;;;;;;;;;5111411;28;20020;-47
2021/01/25 20:10:32;;;;;;;79.72;72.32;;;;;;;;;;5111219;28;20024;-49
2021/01/25 20:12:58;;;;;;;80.10;72.70;;;;;;;;;;5111262;28;20027;-48
2021/01/25 20:15:25;;;;;;;81.30;73.88;;;;;;;;;;5110903;28;20496;-47
2021/01/25 20:17:51;;;;;;;80.43;73.03;;;;;;;;;;5111114;28;20038;-50
2021/01/25 20:20:17;;;;;;;81.68;74.18;;;;;;;;;;5110739;28;20099;-47
2021/01/25 20:22:45;;;;;;;83.68;76.10;;;;;;;;;;5110891;28;20213;-47
2021/01/25 20:25:12;;;;;;;82.43;74.93;;;;;;;;;;5111072;28;20381;-50
2021/01/25 20:27:38;;;;;;;80.32;72.68;;;;;;;;;;5110960;28;20031;-47
2021/01/25 20:30:05;;;;;;;79.63;72.30;;;;;;;;;;5110663;28;20024;-49
2021/01/25 20:32:30;;;;;;;84.82;77.13;;;;;;;;;;5110875;28;20028;-46
2021/01/25 20:34:56;;;;;;;79.80;72.30;;;;;;;;;;5110606;28;20035;-49
2021/01/25 20:37:22;;;;;;;79.72;72.32;;;;;;;;;;5110726;28;20030;-50
2021/01/25 20:39:48;;;;;;;80.07;72.60;;;;;;;;;;5110395;28;20103;-50
2021/01/25 20:42:14;;;;;;;79.75;72.35;;;;;;;;;;5110502;28;20028;-51
2021/01/25 20:44:40;;;;;;;80.22;72.72;;;;;;;;;;5110712;28;20069;-50
2021/01/25 20:47:06;;;;;;;80.80;73.30;;;;;;;;;;5110409;28;20020;-52
2021/01/25 20:49:32;;;;;;;79.80;72.40;;;;;;;;;;5110534;28;20435;-50
2021/01/25 20:51:58;;;;;;;81.20;73.50;;;;;;;;;;5110608;28;20539;-52
2021/01/25 20:54:24;;;;;;;82.32;74.65;;;;;;;;;;5110356;28;20434;-50
2021/01/25 20:56:50;;;;;;;79.75;72.35;;;;;;;;;;5110102;28;20477;-55
2021/01/25 20:59:16;;;;;;;83.03;75.22;;;;;;;;;;5110002;28;20028;-50
2021/01/25 21:01:42;;;;;;;81.40;73.75;;;;;;;;;;5108898;28;20059;-47
2021/01/25 21:04:09;;;;;;;86.82;78.93;;;;;;;;;;5110059;28;20020;-49
2021/01/25 21:06:35;;;;;;;84.00;76.30;;;;;;;;;;5110244;28;20069;-50
2021/01/25 21:09:01;;;;;;;80.45;72.95;;;;;;;;;;5100442;28;20107;-48
2021/01/25 21:11:26;;;;;;;80.57;72.97;;;;;;;;;;5096301;28;20082;-50
2021/01/25 21:13:52;;;;;;;80.90;73.30;;;;;;;;;;5096767;28;20028;-49
2021/01/25 21:16:18;;;;;;;81.97;74.13;;;;;;;;;;5096429;28;20028;-53
2021/01/25 21:18:44;;;;;;;81.78;74.07;;;;;;;;;;5096313;28;20028;-51
2021/01/25 21:21:10;;;;;;;79.90;72.45;;;;;;;;;;5096125;28;20035;-51
2021/01/25 21:23:36;;;;;;;79.55;72.05;;;;;;;;;;5096402;28;20044;-48
2021/01/25 21:26:02;;;;;;;82.82;75.15;;;;;;;;;;5096354;28;20108;-48
2021/01/25 21:28:28;;;;;;;82.68;74.97;;;;;;;;;;5095980;28;20069;-48
2021/01/25 21:30:54;;;;;;;79.93;72.50;;;;;;;;;;5095891;28;20024;-47
2021/01/25 21:33:21;;;;;;;78.82;71.43;;;;;;;;;;5096175;28;20104;-49
2021/01/25 21:35:47;;;;;;;80.53;72.93;;;;;;;;;;5096106;28;20028;-48
2021/01/25 21:38:13;;;;;;;79.50;71.97;;;;;;;;;;5096006;28;20036;-50
2021/01/25 21:40:40;;;;;;;81.63;74.03;;;;;;;;;;5096183;28;20017;-48
2021/01/25 21:43:06;;;;;;;82.72;74.72;;;;;;;;;;5096009;28;20095;-49
2021/01/25 21:45:33;;;;;;;80.60;72.95;;;;;;;;;;5096275;28;20504;-49
2021/01/25 21:47:59;;;;;;;80.38;72.60;;;;;;;;;;5095897;28;20161;-53
2021/01/25 21:50:25;;;;;;;80.07;72.38;;;;;;;;;;5095589;28;20066;-53
